createdAt,value
2023-09-13T00:01:40.764Z,4.62
2023-09-13T00:04:07.641Z,4.61
2023-09-13T00:06:34.935Z,4.78
2023-09-13T00:09:01.816Z,4.94
2023-09-13T00:11:28.408Z,4.31
2023-09-13T00:13:54.957Z,4.88
2023-09-13T00:16:21.563Z,4.75
2023-09-13T00:18:48.223Z,4.66
2023-09-13T00:21:14.758Z,4.54
2023-09-13T00:23:44.993Z,4.52
2023-09-13T00:26:11.819Z,4.62
2023-09-13T00:28:38.441Z,4.63
2023-09-13T00:31:05.387Z,4.56
2023-09-13T00:33:32.041Z,4.69
2023-09-13T00:35:58.732Z,4.79
2023-09-13T00:38:25.326Z,4.70
2023-09-13T00:40:52.272Z,4.75
2023-09-13T00:43:19.126Z,4.23
2023-09-13T00:45:48.281Z,4.61
2023-09-13T00:48:16.668Z,4.43
2023-09-13T00:50:52.612Z,4.56
2023-09-13T00:53:21.344Z,4.54
2023-09-13T00:55:47.970Z,4.23
2023-09-13T00:58:14.750Z,4.36
2023-09-13T01:00:41.387Z,4.31
2023-09-13T01:03:10.465Z,4.24
2023-09-13T01:05:37.450Z,4.22
2023-09-13T01:08:04.667Z,4.63
2023-09-13T01:10:31.591Z,4.38
2023-09-13T01:12:58.778Z,4.62
2023-09-13T01:15:25.443Z,4.59
2023-09-13T01:17:52.110Z,4.83
2023-09-13T01:20:18.762Z,4.45
2023-09-13T01:22:45.571Z,4.24
2023-09-13T01:25:15.745Z,4.38
2023-09-13T01:27:42.584Z,4.60
2023-09-13T01:30:11.118Z,4.73
2023-09-13T01:32:37.837Z,4.37
2023-09-13T01:35:05.755Z,4.81
2023-09-13T01:37:32.401Z,4.62
2023-09-13T01:39:59.226Z,4.51
2023-09-13T01:42:25.921Z,4.72
2023-09-13T01:44:52.580Z,5.00
2023-09-13T01:47:19.446Z,5.01
2023-09-13T01:49:46.450Z,4.96
2023-09-13T01:52:13.072Z,4.61
2023-09-13T01:54:39.932Z,5.13
2023-09-13T01:57:06.588Z,5.71
2023-09-13T01:59:33.460Z,6.19
2023-09-13T02:02:00.420Z,7.08
2023-09-13T02:07:20.054Z,5.48
2023-09-13T02:09:47.059Z,5.17
2023-09-13T02:12:21.179Z,4.35
2023-09-13T02:14:48.040Z,3.85
2023-09-13T02:17:15.237Z,4.23
2023-09-13T02:19:44.182Z,4.22
2023-09-13T02:22:10.948Z,4.61
2023-09-13T02:24:39.275Z,4.61
2023-09-13T02:27:06.220Z,4.61
2023-09-13T02:29:33.711Z,4.96
2023-09-13T02:32:00.407Z,4.68
2023-09-13T02:34:27.445Z,5.09
2023-09-13T02:36:56.279Z,5.23
2023-09-13T02:39:23.209Z,5.23
2023-09-13T02:41:50.076Z,5.59
2023-09-13T02:44:19.062Z,5.13
2023-09-13T02:46:46.390Z,5.28
2023-09-13T02:49:13.267Z,5.81
2023-09-13T02:51:42.336Z,5.78
2023-09-13T02:54:09.183Z,6.05
2023-09-13T02:56:37.878Z,5.47
2023-09-13T02:59:05.334Z,6.03
2023-09-13T03:01:32.900Z,6.10
2023-09-13T03:03:59.686Z,6.01
2023-09-13T03:06:26.619Z,6.17
2023-09-13T03:08:53.578Z,6.72
2023-09-13T03:11:20.244Z,6.51
2023-09-13T03:13:47.689Z,6.27
2023-09-13T03:16:15.076Z,6.26
2023-09-13T03:18:49.360Z,6.03
2023-09-13T03:21:16.934Z,6.03
2023-09-13T03:23:44.053Z,6.27
2023-09-13T03:26:18.426Z,6.43
2023-09-13T03:28:45.824Z,5.76
2023-09-13T03:31:13.214Z,6.37
2023-09-13T03:33:39.932Z,6.67
2023-09-13T03:36:07.371Z,6.13
2023-09-13T03:38:33.986Z,6.18
2023-09-13T03:41:00.780Z,6.15
2023-09-13T03:43:27.670Z,6.62
2023-09-13T03:45:54.288Z,6.59
2023-09-13T03:48:22.683Z,6.19
2023-09-13T03:50:49.657Z,6.24
2023-09-13T03:53:18.323Z,6.18
2023-09-13T03:55:48.161Z,5.73
2023-09-13T03:58:14.753Z,5.98
2023-09-13T04:00:41.617Z,5.81
2023-09-13T04:03:09.068Z,5.97
2023-09-13T04:05:35.922Z,5.95
2023-09-13T04:08:04.976Z,5.68
2023-09-13T04:10:32.399Z,6.20
2023-09-13T04:13:00.419Z,5.86
2023-09-13T04:15:27.083Z,6.49
2023-09-13T04:17:54.039Z,6.60
2023-09-13T04:20:20.697Z,6.74
2023-09-13T04:22:49.189Z,6.54
2023-09-13T04:25:16.114Z,6.38
2023-09-13T04:27:42.687Z,6.37
2023-09-13T04:30:10.157Z,5.68
2023-09-13T04:32:37.294Z,5.41
2023-09-13T04:35:03.937Z,5.91
2023-09-13T04:37:30.997Z,5.66
2023-09-13T04:39:58.755Z,5.99
2023-09-13T04:42:26.148Z,5.56
2023-09-13T04:45:00.308Z,5.92
2023-09-13T04:47:27.025Z,5.65
2023-09-13T04:49:56.880Z,5.88
2023-09-13T04:52:23.936Z,5.91
2023-09-13T04:54:51.556Z,5.39
2023-09-13T04:57:18.167Z,5.57
2023-09-13T04:59:44.893Z,5.54
2023-09-13T05:02:11.885Z,5.89
2023-09-13T05:04:41.745Z,5.39
2023-09-13T05:07:09.943Z,5.58
2023-09-13T05:09:36.608Z,6.33
2023-09-13T05:12:04.600Z,6.18
2023-09-13T05:14:32.225Z,5.95
2023-09-13T05:16:59.086Z,6.37
2023-09-13T05:19:28.783Z,6.25
2023-09-13T05:21:55.767Z,6.61
2023-09-13T05:24:29.831Z,6.62
2023-09-13T05:26:56.407Z,6.51
2023-09-13T05:29:23.251Z,6.10
2023-09-13T05:31:50.182Z,6.40
2023-09-13T05:34:16.878Z,6.14
2023-09-13T05:36:43.937Z,6.52
2023-09-13T05:39:10.561Z,6.19
2023-09-13T05:41:37.795Z,6.21
2023-09-13T05:44:04.697Z,5.95
2023-09-13T05:46:31.869Z,5.75
2023-09-13T05:48:59.168Z,6.55
2023-09-13T05:51:27.123Z,6.36
2023-09-13T05:53:54.069Z,6.15
2023-09-13T05:56:20.919Z,6.43
2023-09-13T05:58:47.797Z,5.92
2023-09-13T06:01:21.904Z,6.07
2023-09-13T06:03:53.652Z,6.15
2023-09-13T06:06:25.930Z,6.06
2023-09-13T06:08:52.630Z,6.67
2023-09-13T06:11:21.621Z,6.71
2023-09-13T06:13:48.459Z,7.64
2023-09-13T06:16:15.570Z,6.35
2023-09-13T06:18:42.205Z,6.66
2023-09-13T06:21:10.882Z,6.51
2023-09-13T06:23:37.690Z,6.35
2023-09-13T06:26:05.018Z,6.76
2023-09-13T06:28:32.972Z,6.81
2023-09-13T06:31:03.856Z,7.66
2023-09-13T06:36:01.995Z,8.24
2023-09-13T06:38:29.813Z,8.19
2023-09-13T06:40:57.494Z,7.93
2023-09-13T06:46:05.365Z,8.58
2023-09-13T06:48:37.719Z,7.78
2023-09-13T06:53:36.003Z,7.80
2023-09-13T06:56:06.200Z,7.56
2023-09-13T06:58:38.757Z,7.73
2023-09-13T07:03:44.770Z,7.74
2023-09-13T07:06:15.539Z,32.87
2023-09-13T07:08:42.845Z,14.17
2023-09-13T07:11:17.195Z,8.53
2023-09-13T07:13:48.101Z,8.20
2023-09-13T07:16:16.042Z,7.33
2023-09-13T07:18:45.058Z,8.17
2023-09-13T07:21:14.549Z,8.02
2023-09-13T07:23:41.504Z,7.66
2023-09-13T07:26:08.443Z,7.56
2023-09-13T07:28:35.552Z,8.17
2023-09-13T07:31:06.221Z,7.77
2023-09-13T07:33:35.114Z,7.34
2023-09-13T07:36:02.140Z,6.92
2023-09-13T07:38:29.653Z,6.41
2023-09-13T07:40:56.825Z,6.29
2023-09-13T07:43:23.853Z,6.79
2023-09-13T07:45:51.053Z,6.32
2023-09-13T07:48:17.706Z,5.95
2023-09-13T07:50:44.648Z,5.85
2023-09-13T07:53:11.916Z,5.68
2023-09-13T07:55:39.013Z,5.93
2023-09-13T07:58:05.661Z,6.22
2023-09-13T08:00:34.424Z,6.21
2023-09-13T08:03:01.448Z,6.60
2023-09-13T08:05:28.403Z,6.47
2023-09-13T08:07:55.205Z,6.65
2023-09-13T08:10:22.264Z,6.58
2023-09-13T08:12:54.650Z,7.30
2023-09-13T08:15:30.909Z,6.99
2023-09-13T08:18:09.300Z,6.79
2023-09-13T08:20:37.851Z,6.61
2023-09-13T08:23:04.563Z,6.72
2023-09-13T08:25:33.551Z,6.26
2023-09-13T08:28:00.487Z,6.56
2023-09-13T08:30:28.205Z,5.98
2023-09-13T08:32:56.182Z,6.90
2023-09-13T08:35:23.043Z,7.21
2023-09-13T08:37:49.957Z,6.60
2023-09-13T08:40:16.883Z,5.61
2023-09-13T08:42:44.595Z,5.60
2023-09-13T08:45:11.628Z,5.82
2023-09-13T08:47:50.632Z,5.89
2023-09-13T08:50:24.675Z,5.71
2023-09-13T08:52:52.375Z,5.99
2023-09-13T08:55:21.731Z,6.26
2023-09-13T08:57:48.728Z,5.91
2023-09-13T09:00:15.311Z,6.02
2023-09-13T09:02:43.078Z,5.83
2023-09-13T09:05:12.393Z,6.11
2023-09-13T09:07:40.395Z,6.04
2023-09-13T09:10:07.301Z,5.60
2023-09-13T09:12:34.663Z,5.46
2023-09-13T09:15:07.353Z,5.63
2023-09-13T09:17:34.120Z,5.92
2023-09-13T09:25:50.924Z,6.87
2023-09-13T09:28:18.208Z,6.82
2023-09-13T09:30:47.139Z,6.14
2023-09-13T09:33:16.197Z,5.93
2023-09-13T09:35:43.034Z,6.00
2023-09-13T09:38:17.067Z,6.14
2023-09-13T09:40:43.988Z,6.07
2023-09-13T09:43:13.985Z,6.88
2023-09-13T09:45:45.204Z,5.81
2023-09-13T09:48:17.012Z,5.25
2023-09-13T09:59:30.217Z,5.20
2023-09-13T10:01:57.328Z,5.17
2023-09-13T10:04:25.284Z,5.57
2023-09-13T10:06:52.494Z,5.78
2023-09-13T10:09:20.379Z,6.09
2023-09-13T10:11:48.320Z,6.66
2023-09-13T10:17:12.894Z,6.27
2023-09-13T10:19:40.610Z,6.88
2023-09-13T10:22:14.870Z,6.93
2023-09-13T10:24:43.914Z,7.34
2023-09-13T10:27:10.557Z,6.96
2023-09-13T10:29:56.599Z,7.20
2023-09-13T10:32:23.393Z,6.86
2023-09-13T10:34:52.317Z,6.62
2023-09-13T10:37:19.996Z,6.60
2023-09-13T10:39:46.669Z,6.90
2023-09-13T10:42:14.062Z,6.63
2023-09-13T10:47:42.878Z,7.50
2023-09-13T10:50:11.681Z,6.83
2023-09-13T10:52:38.392Z,6.96
2023-09-13T10:55:05.989Z,6.81
2023-09-13T10:57:40.413Z,6.83
2023-09-13T11:00:07.305Z,7.31
2023-09-13T11:02:36.310Z,6.92
2023-09-13T11:05:03.320Z,6.97
2023-09-13T11:07:30.190Z,7.70
2023-09-13T11:09:56.919Z,7.50
2023-09-13T11:12:23.745Z,7.84
2023-09-13T11:14:54.571Z,7.83
2023-09-13T11:17:21.308Z,7.65
2023-09-13T11:19:48.737Z,8.27
2023-09-13T11:22:16.259Z,7.82
2023-09-13T11:27:13.078Z,8.20
2023-09-13T11:29:39.774Z,7.66
2023-09-13T11:32:06.737Z,7.59
2023-09-13T11:34:34.290Z,6.82
2023-09-13T11:37:01.431Z,5.74
2023-09-13T11:39:28.425Z,5.79
2023-09-13T11:45:01.684Z,5.45
2023-09-13T11:47:30.317Z,5.58
2023-09-13T11:52:44.631Z,5.59
2023-09-13T11:55:29.731Z,5.68
2023-09-13T11:58:05.840Z,5.64
2023-09-13T12:00:39.931Z,5.16
2023-09-13T12:03:09.693Z,5.75
2023-09-13T12:08:08.789Z,4.95
2023-09-13T12:10:40.939Z,5.20
2023-09-13T12:13:20.928Z,5.32
2023-09-13T12:18:22.465Z,5.13
2023-09-13T12:20:50.129Z,5.68
2023-09-13T12:23:20.468Z,5.20
2023-09-13T12:25:47.311Z,5.39
2023-09-13T12:28:17.592Z,5.17
2023-09-13T12:30:44.572Z,5.29
2023-09-13T12:33:11.755Z,5.13
2023-09-13T12:35:41.170Z,5.42
2023-09-13T12:38:08.121Z,6.39
2023-09-13T12:40:35.568Z,5.08
2023-09-13T12:43:02.401Z,4.93
2023-09-13T12:45:29.056Z,4.97
2023-09-13T12:47:55.810Z,5.01
2023-09-13T12:52:55.608Z,4.85
2023-09-13T12:55:22.222Z,4.98
2023-09-13T12:57:49.145Z,5.35
2023-09-13T13:00:16.102Z,5.10
2023-09-13T13:02:43.104Z,5.14
2023-09-13T13:05:10.038Z,5.12
2023-09-13T13:07:48.117Z,5.16
2023-09-13T13:10:26.613Z,5.07
2023-09-13T13:12:53.487Z,5.75
2023-09-13T13:15:20.450Z,5.00
2023-09-13T13:17:47.870Z,5.24
2023-09-13T13:20:27.049Z,5.05
2023-09-13T13:22:55.980Z,4.72
2023-09-13T13:25:29.640Z,4.11
2023-09-13T13:27:58.278Z,4.50
2023-09-13T13:30:29.444Z,4.40
2023-09-13T13:32:57.115Z,4.11
2023-09-13T13:35:24.496Z,4.43
2023-09-13T13:37:51.124Z,4.24
2023-09-13T13:40:17.792Z,4.51
2023-09-13T13:42:46.110Z,4.62
2023-09-13T13:45:22.706Z,4.91
2023-09-13T13:47:51.604Z,4.52
2023-09-13T13:50:18.568Z,4.54
2023-09-13T13:52:48.417Z,4.17
2023-09-13T13:55:15.156Z,4.57
2023-09-13T13:57:43.861Z,4.43
2023-09-13T14:00:14.090Z,4.29
2023-09-13T14:02:41.034Z,4.27
2023-09-13T14:05:09.023Z,3.97
2023-09-13T14:07:36.095Z,4.13
2023-09-13T14:10:02.994Z,3.95
2023-09-13T14:12:31.091Z,3.77
2023-09-13T14:14:59.457Z,4.10
2023-09-13T14:17:26.653Z,3.79
2023-09-13T14:19:55.628Z,3.79
2023-09-13T14:22:24.656Z,3.79
2023-09-13T14:24:52.134Z,4.28
2023-09-13T14:27:19.119Z,3.73
2023-09-13T14:29:48.047Z,3.87
2023-09-13T14:32:15.218Z,3.73
2023-09-13T14:34:42.208Z,4.12
2023-09-13T14:37:09.138Z,4.19
2023-09-13T14:39:36.264Z,4.36
2023-09-13T14:42:04.427Z,4.43
2023-09-13T14:44:31.345Z,4.06
2023-09-13T14:46:58.633Z,4.71
2023-09-13T14:49:26.585Z,4.05
2023-09-13T14:51:53.474Z,3.86
2023-09-13T14:54:22.568Z,3.86
2023-09-13T14:56:49.491Z,5.82
2023-09-13T14:59:18.934Z,5.34
2023-09-13T15:01:53.331Z,3.56
2023-09-13T15:04:22.184Z,3.21
2023-09-13T15:06:50.997Z,3.34
2023-09-13T15:09:17.685Z,4.08
2023-09-13T15:11:44.408Z,4.18
2023-09-13T15:14:10.997Z,3.57
2023-09-13T15:16:38.648Z,3.63
2023-09-13T15:19:05.527Z,3.83
2023-09-13T15:21:34.568Z,3.65
2023-09-13T15:24:01.674Z,3.37
2023-09-13T15:26:29.327Z,3.24
2023-09-13T15:29:04.383Z,3.49
2023-09-13T15:32:05.928Z,3.51
2023-09-13T15:34:25.823Z,3.57
2023-09-13T15:36:55.474Z,3.80
2023-09-13T15:39:22.426Z,4.10
2023-09-13T15:41:49.255Z,4.23
2023-09-13T15:44:17.610Z,4.57
2023-09-13T15:46:44.584Z,4.20
2023-09-13T15:49:12.010Z,3.91
2023-09-13T15:51:39.933Z,3.90
2023-09-13T15:54:14.223Z,4.39
2023-09-13T15:56:49.856Z,3.98
2023-09-13T15:59:17.222Z,4.22
2023-09-13T16:01:44.890Z,4.30
2023-09-13T16:04:11.864Z,4.34
2023-09-13T16:06:40.920Z,3.90
2023-09-13T16:09:08.572Z,3.63
2023-09-13T16:11:36.083Z,3.82
2023-09-13T16:14:02.763Z,4.07
2023-09-13T16:19:18.069Z,3.93
2023-09-13T16:21:47.739Z,3.85
2023-09-13T16:24:15.594Z,3.94
2023-09-13T16:26:44.715Z,3.28
2023-09-13T16:29:11.393Z,3.64
2023-09-13T16:31:38.502Z,3.55
2023-09-13T16:34:07.369Z,3.61
2023-09-13T16:39:25.535Z,3.04
2023-09-13T16:41:53.930Z,3.18
2023-09-13T16:44:21.627Z,3.15
2023-09-13T16:46:49.486Z,3.05
2023-09-13T16:49:16.572Z,3.31
2023-09-13T16:51:43.538Z,3.70
2023-09-13T16:54:10.547Z,3.31
2023-09-13T16:56:38.611Z,2.79
2023-09-13T16:59:05.502Z,2.64
2023-09-13T17:01:37.721Z,2.38
2023-09-13T17:04:05.565Z,2.60
2023-09-13T17:06:33.148Z,3.26
2023-09-13T17:09:01.057Z,3.50
2023-09-13T17:11:28.468Z,3.10
2023-09-13T17:13:56.958Z,2.97
2023-09-13T17:16:25.620Z,2.99
2023-09-13T17:18:53.354Z,2.83
2023-09-13T17:21:20.316Z,3.33
2023-09-13T17:23:47.937Z,3.28
2023-09-13T17:26:14.835Z,2.98
2023-09-13T17:31:57.545Z,3.05
2023-09-13T17:34:24.996Z,3.27
2023-09-13T17:36:51.684Z,3.21
2023-09-13T17:39:18.432Z,3.14
2023-09-13T17:41:45.279Z,2.81
2023-09-13T17:44:13.179Z,2.93
2023-09-13T17:46:43.031Z,2.64
2023-09-13T17:49:09.690Z,2.96
2023-09-13T17:51:36.417Z,2.88
2023-09-13T17:54:03.197Z,2.54
2023-09-13T17:56:30.188Z,2.89
2023-09-13T17:58:56.828Z,2.84
2023-09-13T18:01:27.413Z,2.81
2023-09-13T18:03:54.941Z,3.00
2023-09-13T18:06:23.083Z,2.86
2023-09-13T18:08:49.984Z,3.27
2023-09-13T18:11:18.937Z,3.38
2023-09-13T18:13:46.549Z,3.32
2023-09-13T18:16:13.912Z,3.21
2023-09-13T18:18:42.630Z,3.29
2023-09-13T18:21:10.094Z,3.50
2023-09-13T18:23:41.074Z,3.49
2023-09-13T18:26:09.515Z,3.26
2023-09-13T18:28:36.071Z,3.17
2023-09-13T18:31:05.743Z,3.24
2023-09-13T18:33:35.037Z,3.58
2023-09-13T18:36:02.811Z,3.87
2023-09-13T18:38:31.923Z,3.73
2023-09-13T18:40:58.858Z,3.60
2023-09-13T18:43:25.932Z,3.63
2023-09-13T18:45:52.484Z,3.16
2023-09-13T18:48:19.177Z,3.28
2023-09-13T18:50:45.802Z,3.42
2023-09-13T18:53:16.489Z,3.41
2023-09-13T18:55:43.423Z,3.63
2023-09-13T18:58:10.345Z,3.43
2023-09-13T19:00:37.287Z,4.02
2023-09-13T19:03:04.194Z,6.30
2023-09-13T19:05:33.990Z,3.77
2023-09-13T19:08:00.650Z,3.31
2023-09-13T19:10:27.572Z,3.70
2023-09-13T19:12:56.644Z,4.16
2023-09-13T19:15:23.229Z,4.53
2023-09-13T19:17:50.361Z,4.55
2023-09-13T19:20:17.025Z,4.48
2023-09-13T19:22:44.596Z,4.24
2023-09-13T19:25:11.454Z,4.38
2023-09-13T19:27:38.232Z,4.39
2023-09-13T19:30:06.333Z,4.76
2023-09-13T19:32:33.292Z,5.55
2023-09-13T19:35:00.230Z,6.52
2023-09-13T19:37:27.020Z,4.79
2023-09-13T19:39:53.876Z,4.97
2023-09-13T19:42:22.680Z,4.65
2023-09-13T19:44:50.144Z,4.60
2023-09-13T19:47:17.013Z,4.47
2023-09-13T19:49:43.908Z,4.25
2023-09-13T19:52:17.979Z,3.85
2023-09-13T19:54:44.783Z,3.97
2023-09-13T19:57:13.851Z,3.86
2023-09-13T19:59:40.900Z,3.72
2023-09-13T20:02:07.916Z,4.05
2023-09-13T20:04:38.485Z,4.02
2023-09-13T20:07:04.999Z,3.97
2023-09-13T20:09:33.385Z,3.58
2023-09-13T20:12:00.046Z,4.15
2023-09-13T20:14:26.749Z,3.80
2023-09-13T20:16:55.934Z,4.13
2023-09-13T20:19:22.485Z,4.38
2023-09-13T20:21:49.198Z,3.79
2023-09-13T20:24:16.759Z,3.30
2023-09-13T20:26:43.769Z,3.69
2023-09-13T20:29:10.464Z,3.37
2023-09-13T20:31:38.480Z,3.63
2023-09-13T20:34:05.195Z,3.11
2023-09-13T20:36:34.065Z,3.05
2023-09-13T20:39:01.677Z,2.94
2023-09-13T20:41:30.530Z,2.66
2023-09-13T20:43:58.034Z,2.54
2023-09-13T20:46:24.621Z,2.63
2023-09-13T20:48:51.167Z,2.67
2023-09-13T20:51:20.137Z,2.62
2023-09-13T20:53:46.669Z,2.50
2023-09-13T20:56:13.294Z,2.68
2023-09-13T20:58:39.905Z,2.78
2023-09-13T21:01:07.082Z,2.67
2023-09-13T21:03:33.856Z,2.86
2023-09-13T21:06:00.637Z,2.80
2023-09-13T21:08:27.547Z,2.79
2023-09-13T21:13:28.699Z,2.58
2023-09-13T21:15:57.805Z,2.44
2023-09-13T21:18:26.895Z,2.57
2023-09-13T21:20:54.507Z,2.38
2023-09-13T21:23:21.479Z,2.62
2023-09-13T21:25:48.470Z,2.50
2023-09-13T21:28:15.320Z,2.56
2023-09-13T21:33:36.139Z,2.34
2023-09-13T21:36:06.956Z,2.41
2023-09-13T21:38:33.906Z,2.37
2023-09-13T21:41:00.612Z,2.40
2023-09-13T21:43:27.997Z,2.30
2023-09-13T21:45:54.723Z,2.30
2023-09-13T21:48:24.224Z,1.96
2023-09-13T21:50:50.834Z,2.19
2023-09-13T21:53:18.350Z,2.08
2023-09-13T21:55:44.949Z,2.22
2023-09-13T21:58:12.055Z,2.38
2023-09-13T22:00:39.027Z,2.20
2023-09-13T22:03:05.962Z,2.16
2023-09-13T22:08:12.930Z,1.95
2023-09-13T22:10:40.769Z,1.94
2023-09-13T22:13:07.637Z,1.98
2023-09-13T22:15:34.423Z,2.00
2023-09-13T22:18:01.096Z,1.68
2023-09-13T22:20:27.675Z,1.76
2023-09-13T22:22:54.873Z,1.61
2023-09-13T22:25:27.703Z,1.70
2023-09-13T22:27:54.221Z,1.87
2023-09-13T22:30:21.185Z,1.62
2023-09-13T22:32:47.816Z,1.63
2023-09-13T22:35:14.821Z,1.57
2023-09-13T22:37:41.776Z,1.51
2023-09-13T22:40:08.375Z,1.43
2023-09-13T22:42:35.897Z,1.43
2023-09-13T22:45:02.909Z,1.55
2023-09-13T22:47:29.799Z,1.52
2023-09-13T22:49:57.428Z,1.51
2023-09-13T22:52:26.135Z,1.40
2023-09-13T22:54:53.422Z,1.49
2023-09-13T22:57:20.326Z,1.71
2023-09-13T22:59:47.070Z,1.64
2023-09-13T23:02:16.091Z,1.55
2023-09-13T23:04:46.203Z,1.64
2023-09-13T23:07:12.878Z,1.51
2023-09-13T23:09:41.809Z,1.51
2023-09-13T23:12:08.656Z,1.46
2023-09-13T23:14:37.531Z,1.69
2023-09-13T23:17:06.334Z,1.64
2023-09-13T23:19:35.071Z,1.45
2023-09-13T23:22:02.193Z,1.43
2023-09-13T23:24:29.182Z,1.66
2023-09-13T23:26:56.617Z,1.34
2023-09-13T23:29:26.637Z,1.46
2023-09-13T23:31:55.442Z,1.40
2023-09-13T23:34:22.157Z,1.53
2023-09-13T23:36:48.848Z,1.59
2023-09-13T23:39:17.364Z,1.57
2023-09-13T23:41:44.447Z,1.65
2023-09-13T23:44:12.173Z,1.46
2023-09-13T23:46:39.363Z,1.47
2023-09-13T23:49:06.404Z,1.72
2023-09-13T23:51:33.498Z,1.43
2023-09-13T23:54:00.079Z,1.52
2023-09-13T23:56:27.192Z,1.91
2023-09-13T23:59:00.530Z,1.58
